Crouch, ID

2:40 AM MDT on May 24, 2015 (GMT -0600)
Stanley | | Change Station
CLOSE
Current Station
Airport
Location: Stanley,
Elevation: 6496 ft
Nearby Weather Stations

Elev 6496 ft 44.17 °N, 114.93 °W | Updated 49 minutes ago

Partly Cloudy
Partly Cloudy
37 °F
Feels Like 37 °F
N
0
Wind Variable Wind from North
Gusts mph

Today
High -- | Low -- °F
--% Chance of Precip.
Yesterday
High -- | Low -- °F
Precip. -- in
6:07 AM 9:11 PM
Waxing Crescent, 37% visible
Pressure 29.89 in
Visibility -9999.0 miles
Clouds
Dew Point 34 °F
Humidity 89%
Rainfall 0.00 in
Snow Depth Not available.
UV Not available.
Pollen 7.80 out of 12
Air Quality Not available.
Flu Activity Sporadic
METAR KSNT 240751Z AUTO 00000KT 03/01 A3007 RMK AO1 SLP120 T00280011

More Conditions Fewer Conditions

Pressure 29.89 in
Visibility -9999.0 miles
Clouds
Dew Point 34 °F
Humidity 89%
Rainfall 0.00 in
Snow Depth Not available.
UV Not available.
Pollen 7.80 out of 12
Air Quality Not available.
Flu Activity Sporadic
METAR KSNT 240751Z AUTO 00000KT 03/01 A3007 RMK AO1 SLP120 T00280011

More Conditions Fewer Conditions

10-Day Weather Forecast

Almanac

Astronomy

May. 24, 2015 Rise Set
Actual Time
Civil Twilight
Nautical Twilight
Astronomical Twilight
Moon
Length of Visible Light
Length of Day
Tomorrow will be .
, % of the Moon is Illuminated

Today's Extremes

State Highs State Lows

Community

WunderPhotos

Upload Photos

1,823,698 photos uploaded!

WunderBlogs® & News

Nearby

Air Quality

  Air Quality AQ Index Pollutant
Not available.

Snow Depth

Station Depth Elevation

Earthquake Activity

City Distance Mag. Time & Date
Minimum magnitude displayed is 2.5.

Coastal Water Temperatures

Place Temperature

Stations

Nearby Weather Stations

Station Location Temp. Windchill Dew Point Humidity Wind Precip. Elev Updated Type